createdAt,value
2022-10-12T00:19:03.279Z,17.80
2022-10-12T01:12:50.433Z,18.50
2022-10-12T01:27:26.594Z,17.87
2022-10-12T01:30:36.795Z,18.94
2022-10-12T01:32:07.267Z,21.06
2022-10-12T01:35:00.839Z,19.31
2022-10-12T01:36:43.477Z,18.44
2022-10-12T01:37:44.902Z,19.06
2022-10-12T01:39:01.975Z,18.00
2022-10-12T02:02:55.237Z,20.25
2022-10-12T02:04:20.068Z,18.19
2022-10-12T02:05:31.589Z,18.47
2022-10-12T02:07:52.099Z,19.50
2022-10-12T02:08:19.483Z,21.07
2022-10-12T02:08:59.019Z,17.50
2022-10-12T02:10:07.643Z,19.62
2022-10-12T02:11:17.136Z,19.25
2022-10-12T02:12:24.047Z,16.94
2022-10-12T02:13:37.957Z,18.87
2022-10-12T03:04:08.672Z,14.94
2022-10-12T03:05:10.957Z,16.31
2022-10-12T03:06:19.262Z,15.06
2022-10-12T03:23:51.816Z,17.31
2022-10-12T03:24:55.724Z,18.12
2022-10-12T03:25:59.737Z,15.56
2022-10-12T03:27:06.570Z,16.37
2022-10-12T03:28:10.676Z,13.81
2022-10-12T03:29:14.715Z,17.62
2022-10-12T03:30:18.796Z,16.60
2022-10-12T03:31:22.902Z,14.87
2022-10-12T03:32:26.936Z,15.44
2022-10-12T03:33:30.906Z,15.94
2022-10-12T03:34:37.970Z,14.75
2022-10-12T03:35:46.894Z,17.94
2022-10-12T03:36:52.263Z,17.94
2022-10-12T03:37:56.157Z,17.75
2022-10-12T03:39:04.579Z,16.44
2022-10-12T03:40:10.961Z,18.37
2022-10-12T03:41:19.102Z,16.19
2022-10-12T03:42:28.104Z,17.37
2022-10-12T03:43:31.691Z,17.81
2022-10-12T03:44:37.263Z,18.37
2022-10-12T03:45:49.055Z,16.12
2022-10-12T03:48:03.721Z,18.06
2022-10-12T04:13:22.778Z,18.75
2022-10-12T05:10:48.282Z,16.25
2022-10-12T05:13:15.107Z,17.87
2022-10-12T05:14:20.541Z,18.62
2022-10-12T05:15:27.593Z,9.94
2022-10-12T05:16:31.690Z,19.06
2022-10-12T05:17:47.086Z,16.81
2022-10-12T05:36:42.742Z,14.38
2022-10-12T07:41:19.525Z,16.44
2022-10-12T07:42:15.529Z,15.50
2022-10-12T07:43:21.346Z,16.87
2022-10-12T07:44:25.249Z,16.69
2022-10-12T07:45:30.877Z,16.25
2022-10-12T07:46:35.118Z,16.33
2022-10-12T07:47:40.866Z,15.50
2022-10-12T08:46:02.028Z,12.88
2022-10-12T08:47:32.456Z,11.25
2022-10-12T09:22:54.950Z,6.87
2022-10-12T09:45:33.313Z,8.31
2022-10-12T09:56:13.226Z,5.94
2022-10-12T09:56:44.392Z,5.06
2022-10-12T09:58:04.080Z,5.50
2022-10-12T10:01:00.151Z,5.31
2022-10-12T10:02:19.117Z,5.87
2022-10-12T10:03:30.790Z,6.06
2022-10-12T10:04:33.205Z,5.25
2022-10-12T10:05:39.420Z,5.44
2022-10-12T10:06:51.504Z,4.31
2022-10-12T10:08:23.535Z,5.50
2022-10-12T10:09:33.121Z,5.00
2022-10-12T10:10:41.567Z,5.50
2022-10-12T10:11:45.584Z,3.87
2022-10-12T10:12:54.690Z,4.06
2022-10-12T10:14:01.286Z,4.87
2022-10-12T10:15:09.886Z,4.87
2022-10-12T10:17:55.605Z,5.69
2022-10-12T10:19:03.697Z,3.62
2022-10-12T10:20:10.277Z,1.31
2022-10-12T10:24:28.057Z,3.25
2022-10-12T10:25:33.536Z,3.81
2022-10-12T10:26:55.417Z,2.62
2022-10-12T10:28:14.386Z,3.31
2022-10-12T10:29:24.319Z,2.62
2022-10-12T10:30:35.203Z,1.75
2022-10-12T10:31:33.992Z,2.06
2022-10-12T10:32:37.940Z,3.19
2022-10-12T10:33:44.244Z,1.69
2022-10-12T10:34:48.142Z,2.69
2022-10-12T10:36:25.731Z,2.81
2022-10-12T10:37:33.420Z,3.25
2022-10-12T10:38:55.149Z,3.56
2022-10-12T10:40:00.076Z,1.75
2022-10-12T10:41:06.969Z,1.94
2022-10-12T10:42:24.811Z,2.69
2022-10-12T10:43:40.791Z,0.50
2022-10-12T10:46:12.217Z,1.94
2022-10-12T10:48:50.535Z,2.44
2022-10-12T10:49:03.003Z,1.81
2022-10-12T10:50:02.553Z,3.25
2022-10-12T10:51:10.083Z,2.31
2022-10-12T10:52:33.712Z,1.62
2022-10-12T10:53:47.661Z,1.75
2022-10-12T10:55:20.281Z,2.12
2022-10-12T10:56:26.994Z,2.50
2022-10-12T10:57:31.544Z,0.25
2022-10-12T10:58:47.160Z,3.56
2022-10-12T11:00:26.381Z,2.31
2022-10-12T11:01:34.718Z,2.62
2022-10-12T12:36:37.586Z,2.81
2022-10-12T12:41:36.978Z,2.00
2022-10-12T13:29:23.543Z,2.94
2022-10-12T13:30:43.117Z,3.37
2022-10-12T13:31:49.209Z,3.50
2022-10-12T13:33:10.651Z,2.94
2022-10-12T13:33:13.244Z,2.62
2022-10-12T13:34:25.904Z,3.56
2022-10-12T13:35:49.578Z,3.44
2022-10-12T13:37:04.878Z,2.75
2022-10-12T13:38:34.204Z,2.19
2022-10-12T13:39:45.335Z,1.81
2022-10-12T13:41:00.151Z,3.19
2022-10-12T13:42:08.683Z,1.75
2022-10-12T13:43:29.039Z,2.25
2022-10-12T13:46:00.428Z,1.94
2022-10-12T14:31:57.585Z,3.44
2022-10-12T14:33:21.140Z,3.00
2022-10-12T14:34:36.532Z,2.62
2022-10-12T14:35:40.813Z,0.06
2022-10-12T14:37:01.190Z,2.44
2022-10-12T15:31:51.158Z,0.81
2022-10-12T15:33:09.225Z,4.75
2022-10-12T15:34:08.257Z,4.75
2022-10-12T15:35:24.240Z,5.12
2022-10-12T15:36:36.065Z,13.44
2022-10-12T17:13:28.584Z,25.53
2022-10-12T17:40:13.674Z,24.37
2022-10-12T17:44:43.743Z,22.56
2022-10-12T17:45:49.188Z,25.37
2022-10-12T17:46:54.893Z,26.47
2022-10-12T17:47:58.746Z,30.20
2022-10-12T17:49:02.616Z,26.33
2022-10-12T17:50:07.038Z,26.73
2022-10-12T17:51:11.945Z,26.94
2022-10-12T17:52:17.412Z,27.73
2022-10-12T17:53:21.627Z,27.00
2022-10-12T17:54:26.434Z,26.37
2022-10-12T17:55:47.623Z,27.19
2022-10-12T17:56:39.056Z,25.69
2022-10-12T17:57:43.018Z,25.73
2022-10-12T17:58:46.978Z,25.12
2022-10-12T17:59:50.918Z,25.00
2022-10-12T18:00:54.984Z,25.00
2022-10-12T18:02:02.652Z,25.47
2022-10-12T18:03:09.278Z,24.25
2022-10-12T18:04:13.923Z,21.69
2022-10-12T18:05:17.986Z,25.37
2022-10-12T18:06:24.150Z,25.33
2022-10-12T18:07:28.173Z,26.00
2022-10-12T18:08:33.613Z,24.53
2022-10-12T18:09:39.054Z,24.33
2022-10-12T18:10:42.982Z,25.80
2022-10-12T18:11:53.439Z,25.13
2022-10-12T18:12:53.209Z,26.13
2022-10-12T18:13:58.327Z,25.20
2022-10-12T18:15:02.547Z,25.81
2022-10-12T18:16:11.438Z,26.00
2022-10-12T18:17:17.017Z,22.31
2022-10-12T18:18:24.054Z,24.53
2022-10-12T18:19:31.240Z,18.13
2022-10-12T18:20:35.478Z,16.81
2022-10-12T18:21:45.479Z,21.19
2022-10-12T18:22:49.246Z,20.81
2022-10-12T18:23:55.283Z,17.50
2022-10-12T18:25:03.556Z,26.27
2022-10-12T18:26:17.827Z,19.87
2022-10-12T18:27:20.224Z,22.00
2022-10-12T18:28:24.235Z,21.69
2022-10-12T18:29:29.939Z,21.62
2022-10-12T18:33:27.303Z,22.81
2022-10-12T19:12:00.722Z,28.38
2022-10-12T19:15:11.784Z,29.13
2022-10-12T19:44:29.800Z,19.19
2022-10-12T19:44:32.995Z,17.60
2022-10-12T19:45:40.804Z,19.94
2022-10-12T19:46:46.868Z,17.81
2022-10-12T19:47:52.496Z,19.20
2022-10-12T19:49:01.090Z,16.56
2022-10-12T19:50:08.880Z,17.87
2022-10-12T19:51:55.417Z,20.00
2022-10-12T19:55:28.167Z,16.00
2022-10-12T19:56:32.281Z,20.37
2022-10-12T19:57:49.239Z,19.50
2022-10-12T19:58:44.861Z,18.87
2022-10-12T19:59:51.414Z,19.69
2022-10-12T20:01:03.576Z,20.75
2022-10-12T20:02:11.230Z,20.88
2022-10-12T20:03:18.296Z,18.53
2022-10-12T20:05:47.773Z,18.00
2022-10-12T20:06:51.827Z,16.69
2022-10-12T20:08:00.794Z,14.06
2022-10-12T20:09:08.086Z,17.73
2022-10-12T20:10:12.112Z,19.06
2022-10-12T20:11:20.450Z,17.69
2022-10-12T20:12:27.802Z,16.44
2022-10-12T20:13:32.404Z,15.81
2022-10-12T20:14:39.093Z,15.50
2022-10-12T20:15:43.091Z,19.06
2022-10-12T20:16:48.416Z,18.13
2022-10-12T20:17:54.004Z,9.88
2022-10-12T20:18:58.086Z,16.44
2022-10-12T20:20:02.468Z,17.87
2022-10-12T20:21:09.005Z,18.56
2022-10-12T20:22:12.923Z,18.50
2022-10-12T20:24:37.078Z,18.69
2022-10-12T20:24:39.972Z,19.44
2022-10-12T20:25:45.619Z,18.93
2022-10-12T20:27:04.430Z,19.94
2022-10-12T20:27:55.527Z,17.80
2022-10-12T20:29:01.652Z,16.50
2022-10-12T20:30:07.845Z,15.80
2022-10-12T20:31:13.648Z,18.37
2022-10-12T20:32:19.395Z,16.37
2022-10-12T20:33:49.606Z,17.19
2022-10-12T20:34:52.084Z,17.06
2022-10-12T20:36:01.623Z,44.27
2022-10-12T20:37:57.384Z,19.81
2022-10-12T20:38:25.654Z,18.87
2022-10-12T20:39:28.962Z,17.93
2022-10-12T20:40:33.107Z,13.50
2022-10-12T20:41:45.864Z,15.63
2022-10-12T20:42:49.011Z,15.69
2022-10-12T20:43:58.894Z,14.13
2022-10-12T20:45:03.044Z,15.56
2022-10-12T20:46:09.940Z,16.69
2022-10-12T20:47:14.095Z,13.93
2022-10-12T20:49:41.395Z,11.19
2022-10-12T20:50:51.429Z,13.94
2022-10-12T20:51:51.160Z,15.25
2022-10-12T20:52:56.713Z,15.69
2022-10-12T20:54:05.990Z,17.75
2022-10-12T20:55:14.059Z,14.13
2022-10-12T20:56:53.838Z,15.81
2022-10-12T21:08:44.508Z,12.13
2022-10-12T21:09:48.503Z,12.69
2022-10-12T21:10:52.776Z,10.94
2022-10-12T21:11:58.526Z,10.38
2022-10-12T21:13:02.688Z,10.44
2022-10-12T21:14:23.507Z,10.50
2022-10-12T21:15:26.911Z,10.63
2022-10-12T21:19:17.530Z,11.19
2022-10-12T21:20:21.602Z,10.69
2022-10-12T21:21:29.209Z,9.56
2022-10-12T21:22:37.095Z,11.00
2022-10-12T21:23:43.166Z,10.75
2022-10-12T21:24:50.422Z,12.13
2022-10-12T21:26:01.316Z,11.88
2022-10-12T21:27:17.322Z,9.44
2022-10-12T21:28:15.359Z,10.19
2022-10-12T21:29:31.174Z,12.13
2022-10-12T21:30:27.433Z,12.31
2022-10-12T21:31:32.803Z,12.00
2022-10-12T21:32:37.346Z,12.19
2022-10-12T21:33:46.867Z,10.13
2022-10-12T21:34:53.869Z,11.81
2022-10-12T21:36:15.476Z,5.81
2022-10-12T21:37:16.389Z,12.63
2022-10-12T21:38:20.429Z,9.67
2022-10-12T21:39:24.435Z,12.56
2022-10-12T21:40:30.058Z,11.19
2022-10-12T21:41:37.819Z,13.56
2022-10-12T21:42:43.472Z,9.75
2022-10-12T21:43:52.798Z,14.81
2022-10-12T21:45:22.703Z,10.81
2022-10-12T21:46:16.563Z,11.81
2022-10-12T21:47:20.457Z,11.12
2022-10-12T21:48:31.008Z,11.00
2022-10-12T21:50:21.677Z,9.00
2022-10-12T21:50:47.287Z,10.81
2022-10-12T21:51:56.078Z,7.37
2022-10-12T21:53:01.713Z,9.06
2022-10-12T21:54:06.829Z,13.25
2022-10-12T21:55:15.004Z,10.88
2022-10-12T21:56:21.010Z,12.60
2022-10-12T21:57:27.826Z,11.00
2022-10-12T21:58:33.433Z,11.19
2022-10-12T21:59:41.702Z,11.38
2022-10-12T22:00:45.181Z,11.25
2022-10-12T22:01:52.649Z,11.31
2022-10-12T22:02:58.241Z,12.37
2022-10-12T22:04:06.810Z,15.44
2022-10-12T22:05:10.872Z,13.06
2022-10-12T22:06:18.728Z,14.19
2022-10-12T22:07:23.907Z,11.88
2022-10-12T22:08:29.917Z,8.19
2022-10-12T22:09:37.131Z,13.13
2022-10-12T22:10:41.323Z,12.13
2022-10-12T22:11:48.171Z,12.13
2022-10-12T22:12:53.770Z,13.00
2022-10-12T22:26:11.339Z,13.19
2022-10-12T22:27:15.392Z,12.19
2022-10-12T22:28:21.804Z,14.38
2022-10-12T22:29:27.519Z,13.38
2022-10-12T22:30:35.403Z,10.38
2022-10-12T23:19:18.370Z,8.13
2022-10-12T23:35:06.299Z,9.38
2022-10-12T23:36:13.722Z,7.00
2022-10-12T23:37:19.246Z,7.19
2022-10-12T23:38:23.508Z,10.06
2022-10-12T23:39:30.904Z,9.88
2022-10-12T23:40:42.836Z,9.20
2022-10-12T23:41:46.921Z,7.31
2022-10-12T23:42:50.897Z,9.31
2022-10-12T23:43:54.994Z,10.13
2022-10-12T23:44:59.020Z,9.44
2022-10-12T23:46:06.909Z,10.25
2022-10-12T23:48:33.153Z,9.56
2022-10-12T23:49:40.870Z,9.88
2022-10-12T23:51:51.332Z,10.31
2022-10-12T23:53:58.119Z,9.13
2022-10-12T23:55:03.311Z,10.00
2022-10-12T23:56:09.355Z,11.00
2022-10-12T23:57:41.631Z,12.00
2022-10-12T23:58:26.662Z,9.44
2022-10-12T23:59:33.504Z,11.38
